createdAt,value
2019-03-30T00:01:44.636Z,7.90
2019-03-30T00:04:36.686Z,9.88
2019-03-30T00:07:20.853Z,8.45
2019-03-30T00:09:58.856Z,9.50
2019-03-30T00:12:33.108Z,8.10
2019-03-30T00:15:53.377Z,8.28
2019-03-30T00:18:30.510Z,9.43
2019-03-30T00:20:59.697Z,8.10
2019-03-30T00:23:36.144Z,8.30
2019-03-30T00:26:08.000Z,8.10
2019-03-30T00:28:44.483Z,8.88
2019-03-30T00:31:13.534Z,8.43
2019-03-30T00:33:43.331Z,8.53
2019-03-30T00:36:22.134Z,7.50
2019-03-30T00:38:58.254Z,8.10
2019-03-30T00:41:28.386Z,9.55
2019-03-30T00:44:00.524Z,8.75
2019-03-30T00:46:34.493Z,11.85
2019-03-30T00:49:14.340Z,10.95
2019-03-30T00:51:48.224Z,9.93
2019-03-30T00:54:25.158Z,9.43
2019-03-30T00:56:54.316Z,9.23
2019-03-30T00:59:23.601Z,7.58
2019-03-30T01:01:52.772Z,8.50
2019-03-30T01:04:21.977Z,10.30
2019-03-30T01:06:51.150Z,9.05
2019-03-30T01:09:20.327Z,7.95
2019-03-30T01:11:49.837Z,11.48
2019-03-30T01:14:19.005Z,9.83
2019-03-30T01:16:48.163Z,8.17
2019-03-30T01:19:17.353Z,12.65
2019-03-30T01:21:46.598Z,7.60
2019-03-30T01:24:15.875Z,10.77
2019-03-30T01:26:45.114Z,9.03
2019-03-30T01:29:14.299Z,8.93
2019-03-30T01:31:43.461Z,10.90
2019-03-30T01:34:12.687Z,9.23
2019-03-30T01:36:41.830Z,8.98
2019-03-30T01:39:11.077Z,9.65
2019-03-30T01:41:40.338Z,8.83
2019-03-30T01:44:09.575Z,11.55
2019-03-30T01:46:38.792Z,13.10
2019-03-30T01:49:07.940Z,12.40
2019-03-30T01:51:37.140Z,10.58
2019-03-30T01:54:06.345Z,10.15
2019-03-30T01:56:35.631Z,10.78
2019-03-30T01:59:05.053Z,10.00
2019-03-30T02:01:34.391Z,9.10
2019-03-30T02:04:03.686Z,10.65
2019-03-30T02:06:33.069Z,7.80
2019-03-30T02:09:02.339Z,8.10
2019-03-30T02:11:31.655Z,9.98
2019-03-30T02:14:00.904Z,7.72
2019-03-30T02:16:30.180Z,10.05
2019-03-30T02:18:59.537Z,9.58
2019-03-30T02:21:28.800Z,9.73
2019-03-30T02:23:58.068Z,11.80
2019-03-30T02:26:27.398Z,9.60
2019-03-30T02:28:56.667Z,10.50
2019-03-30T02:31:26.016Z,9.50
2019-03-30T02:33:55.287Z,11.40
2019-03-30T02:36:24.642Z,12.20
2019-03-30T02:38:53.977Z,12.80
2019-03-30T02:41:23.254Z,11.05
2019-03-30T02:43:52.523Z,8.70
2019-03-30T02:46:21.831Z,10.35
2019-03-30T02:48:51.101Z,12.25
2019-03-30T02:51:20.462Z,9.85
2019-03-30T02:53:49.732Z,9.70
2019-03-30T02:56:19.118Z,12.95
2019-03-30T02:58:48.426Z,9.83
2019-03-30T03:01:17.714Z,10.35
2019-03-30T03:03:47.034Z,11.73
2019-03-30T03:06:16.311Z,9.28
2019-03-30T03:08:45.607Z,10.98
2019-03-30T03:11:14.970Z,11.93
2019-03-30T03:13:44.221Z,10.25
2019-03-30T03:16:13.502Z,11.80
2019-03-30T03:18:42.842Z,10.18
2019-03-30T03:21:12.193Z,12.98
2019-03-30T03:23:41.467Z,9.10
2019-03-30T03:26:10.837Z,12.98
2019-03-30T03:28:40.092Z,12.43
2019-03-30T03:31:09.383Z,10.30
2019-03-30T03:33:38.753Z,9.93
2019-03-30T03:36:08.058Z,13.10
2019-03-30T03:38:37.317Z,13.90
2019-03-30T03:41:06.682Z,10.98
2019-03-30T03:43:36.108Z,9.58
2019-03-30T03:46:05.485Z,10.78
2019-03-30T03:48:34.720Z,10.28
2019-03-30T03:51:05.303Z,10.20
2019-03-30T03:53:35.662Z,10.48
2019-03-30T03:56:06.076Z,11.60
2019-03-30T03:58:36.450Z,12.53
2019-03-30T04:01:05.829Z,10.30
2019-03-30T04:03:35.397Z,12.35
2019-03-30T04:06:06.754Z,10.43
2019-03-30T04:08:36.658Z,9.23
2019-03-30T04:11:06.003Z,10.70
2019-03-30T04:13:35.296Z,10.98
2019-03-30T04:16:04.605Z,11.60
2019-03-30T04:18:33.950Z,11.15
2019-03-30T04:21:03.219Z,10.55
2019-03-30T04:23:32.515Z,10.53
2019-03-30T04:26:01.794Z,9.20
2019-03-30T04:28:31.102Z,10.63
2019-03-30T04:31:00.684Z,16.12
2019-03-30T04:33:30.055Z,10.68
2019-03-30T04:35:59.311Z,11.45
2019-03-30T04:38:28.581Z,11.68
2019-03-30T04:40:57.841Z,12.68
2019-03-30T04:43:27.142Z,12.15
2019-03-30T04:45:56.404Z,10.32
2019-03-30T04:48:29.336Z,10.18
2019-03-30T04:50:56.687Z,8.53
2019-03-30T04:53:26.049Z,11.40
2019-03-30T04:55:55.405Z,10.60
2019-03-30T04:58:24.747Z,9.98
2019-03-30T05:00:54.130Z,16.15
2019-03-30T05:03:23.394Z,11.48
2019-03-30T05:05:52.754Z,9.30
2019-03-30T05:08:22.082Z,10.58
2019-03-30T05:10:51.408Z,10.13
2019-03-30T05:13:20.688Z,9.95
2019-03-30T05:15:49.951Z,10.00
2019-03-30T05:18:19.283Z,10.70
2019-03-30T05:20:48.591Z,12.35
2019-03-30T05:23:17.905Z,14.33
2019-03-30T05:25:47.271Z,13.80
2019-03-30T05:28:16.593Z,12.55
2019-03-30T05:30:48.151Z,11.12
2019-03-30T05:33:17.420Z,11.00
2019-03-30T05:35:46.785Z,12.60
2019-03-30T05:38:16.146Z,14.68
2019-03-30T05:40:45.415Z,13.20
2019-03-30T05:43:14.686Z,11.35
2019-03-30T05:45:43.917Z,12.37
2019-03-30T05:48:13.079Z,12.30
2019-03-30T05:50:42.368Z,10.82
2019-03-30T05:53:11.561Z,11.15
2019-03-30T05:55:40.747Z,11.10
2019-03-30T05:58:10.259Z,15.43
2019-03-30T06:00:39.507Z,10.00
2019-03-30T06:03:10.253Z,10.38
2019-03-30T06:05:39.443Z,12.25
2019-03-30T06:08:08.622Z,10.90
2019-03-30T06:10:39.009Z,11.65
2019-03-30T06:13:08.400Z,11.38
2019-03-30T06:15:37.597Z,12.68
2019-03-30T06:18:06.775Z,10.20
2019-03-30T06:20:35.932Z,12.47
2019-03-30T06:23:05.142Z,18.35
2019-03-30T06:25:34.413Z,12.23
2019-03-30T06:28:03.668Z,12.45
2019-03-30T06:30:32.928Z,11.53
2019-03-30T06:33:02.160Z,12.18
2019-03-30T06:35:31.462Z,13.15
2019-03-30T06:38:00.650Z,16.82
2019-03-30T06:40:29.843Z,13.13
2019-03-30T06:43:02.026Z,15.05
2019-03-30T06:45:31.225Z,10.98
2019-03-30T06:48:00.393Z,14.90
2019-03-30T06:50:31.618Z,16.40
2019-03-30T06:53:00.857Z,16.45
2019-03-30T06:55:30.133Z,16.65
2019-03-30T06:57:59.322Z,17.70
2019-03-30T07:00:37.924Z,17.73
2019-03-30T07:03:07.813Z,18.35
2019-03-30T07:05:39.861Z,15.53
2019-03-30T07:08:17.168Z,21.20
2019-03-30T07:10:46.559Z,18.00
2019-03-30T07:13:15.986Z,16.50
2019-03-30T07:15:47.242Z,18.20
2019-03-30T07:18:16.774Z,15.20
2019-03-30T07:20:46.062Z,17.07
2019-03-30T07:23:15.336Z,17.92
2019-03-30T07:25:44.582Z,18.15
2019-03-30T07:28:13.821Z,16.50
2019-03-30T07:30:43.029Z,18.83
2019-03-30T07:33:12.206Z,19.23
2019-03-30T07:35:41.397Z,20.50
2019-03-30T07:38:10.665Z,19.70
2019-03-30T07:40:39.945Z,19.93
2019-03-30T07:43:09.217Z,19.57
2019-03-30T07:45:38.560Z,16.45
2019-03-30T07:48:07.717Z,17.57
2019-03-30T07:50:36.998Z,15.80
2019-03-30T07:53:06.219Z,17.70
2019-03-30T07:55:35.507Z,15.50
2019-03-30T07:58:04.807Z,17.67
2019-03-30T08:00:33.944Z,18.37
2019-03-30T08:03:03.102Z,19.30
2019-03-30T08:05:32.582Z,17.60
2019-03-30T08:08:01.837Z,17.10
2019-03-30T08:10:31.112Z,16.80
2019-03-30T08:13:00.766Z,17.20
2019-03-30T08:15:30.008Z,14.87
2019-03-30T08:17:59.210Z,17.20
2019-03-30T08:20:28.378Z,18.33
2019-03-30T08:22:59.050Z,18.63
2019-03-30T08:25:28.210Z,18.33
2019-03-30T08:27:57.420Z,19.10
2019-03-30T08:30:26.689Z,16.00
2019-03-30T08:32:55.904Z,16.00
2019-03-30T08:35:25.150Z,23.77
2019-03-30T08:37:54.335Z,16.60
2019-03-30T08:40:24.711Z,17.33
2019-03-30T08:42:54.084Z,20.10
2019-03-30T08:45:25.319Z,20.27
2019-03-30T08:47:54.643Z,25.87
2019-03-30T08:50:29.522Z,23.83
2019-03-30T08:52:58.726Z,23.90
2019-03-30T08:55:28.005Z,23.00
2019-03-30T08:58:02.263Z,20.00
2019-03-30T09:00:39.520Z,20.57
2019-03-30T09:03:09.026Z,19.50
2019-03-30T09:05:38.249Z,23.03
2019-03-30T09:08:07.471Z,22.03
2019-03-30T09:10:36.829Z,22.10
2019-03-30T09:13:06.093Z,22.87
2019-03-30T09:15:35.408Z,20.20
2019-03-30T09:18:04.967Z,19.67
2019-03-30T09:20:34.473Z,20.60
2019-03-30T09:23:03.790Z,22.23
2019-03-30T09:28:31.606Z,17.40
2019-03-30T09:31:01.100Z,23.20
2019-03-30T09:33:30.314Z,15.97
2019-03-30T09:35:59.498Z,17.60
2019-03-30T09:38:28.765Z,17.27
2019-03-30T09:40:57.927Z,17.90
2019-03-30T09:43:27.245Z,19.30
2019-03-30T09:45:56.427Z,17.57
2019-03-30T09:48:25.793Z,20.40
2019-03-30T09:50:54.990Z,17.20
2019-03-30T09:53:24.193Z,19.73
2019-03-30T09:55:55.440Z,17.93
2019-03-30T09:58:24.690Z,18.77
2019-03-30T10:00:53.884Z,19.27
2019-03-30T10:03:23.073Z,20.20
2019-03-30T10:05:52.288Z,18.70
2019-03-30T10:08:21.461Z,19.70
2019-03-30T10:10:50.672Z,21.60
2019-03-30T10:13:19.897Z,18.30
2019-03-30T10:15:49.069Z,21.20
2019-03-30T10:18:18.282Z,21.00
2019-03-30T10:20:47.533Z,19.17
2019-03-30T10:23:16.721Z,22.27
2019-03-30T10:25:45.981Z,21.47
2019-03-30T10:28:15.170Z,19.53
2019-03-30T10:30:44.435Z,19.43
2019-03-30T10:33:13.686Z,19.23
2019-03-30T10:35:42.919Z,21.93
2019-03-30T10:38:12.097Z,19.67
2019-03-30T10:40:41.314Z,19.50
2019-03-30T10:43:10.561Z,18.60
2019-03-30T10:45:39.814Z,21.37
2019-03-30T10:48:09.071Z,16.73
2019-03-30T10:50:38.292Z,18.03
2019-03-30T10:53:07.636Z,20.33
2019-03-30T10:55:37.025Z,19.73
2019-03-30T10:58:06.136Z,16.97
2019-03-30T11:00:36.980Z,18.10
2019-03-30T11:03:06.148Z,18.37
2019-03-30T11:05:35.454Z,17.30
2019-03-30T11:08:04.721Z,18.83
2019-03-30T11:10:33.989Z,19.40
2019-03-30T11:13:03.175Z,17.90
2019-03-30T11:15:34.311Z,15.67
2019-03-30T11:18:03.671Z,17.00
2019-03-30T11:20:33.078Z,16.80
2019-03-30T11:23:02.409Z,18.60
2019-03-30T11:25:31.569Z,16.03
2019-03-30T11:28:00.882Z,19.23
2019-03-30T11:30:30.555Z,21.40
2019-03-30T11:32:59.754Z,19.40
2019-03-30T11:35:28.980Z,17.70
2019-03-30T11:37:58.212Z,19.37
2019-03-30T11:40:27.521Z,19.40
2019-03-30T11:42:56.697Z,19.07
2019-03-30T11:45:26.197Z,17.23
2019-03-30T11:47:55.436Z,19.00
2019-03-30T11:50:24.669Z,17.77
2019-03-30T11:52:53.868Z,19.90
2019-03-30T11:55:23.186Z,20.63
2019-03-30T11:57:52.396Z,21.37
2019-03-30T12:00:21.749Z,23.27
2019-03-30T12:02:50.952Z,23.50
2019-03-30T12:05:20.265Z,18.13
2019-03-30T12:07:49.533Z,17.77
2019-03-30T12:10:20.890Z,15.27
2019-03-30T12:12:50.190Z,18.60
2019-03-30T12:15:19.525Z,24.37
2019-03-30T12:17:48.751Z,17.93
2019-03-30T12:20:18.121Z,17.60
2019-03-30T12:22:47.287Z,19.70
2019-03-30T12:25:16.607Z,17.33
2019-03-30T12:27:45.788Z,21.73
2019-03-30T12:30:15.202Z,17.10
2019-03-30T12:32:44.393Z,16.87
2019-03-30T12:35:13.687Z,20.77
2019-03-30T12:37:42.881Z,21.03
2019-03-30T12:40:12.220Z,20.83
2019-03-30T12:42:42.441Z,21.00
2019-03-30T12:45:12.134Z,19.10
2019-03-30T12:47:41.309Z,21.87
2019-03-30T12:50:11.350Z,18.47
2019-03-30T12:52:40.593Z,17.13
2019-03-30T12:55:20.963Z,19.57
2019-03-30T12:57:57.394Z,19.70
2019-03-30T13:00:29.663Z,20.80
2019-03-30T13:03:04.347Z,20.60
2019-03-30T13:05:34.928Z,25.17
2019-03-30T13:08:09.393Z,15.60
2019-03-30T13:10:40.151Z,16.23
2019-03-30T13:13:13.240Z,18.37
2019-03-30T13:15:45.370Z,17.77
2019-03-30T13:18:24.862Z,22.07
2019-03-30T13:20:56.151Z,17.10
2019-03-30T13:23:26.784Z,18.40
2019-03-30T13:26:04.018Z,16.90
2019-03-30T13:28:30.870Z,21.77
2019-03-30T13:31:05.409Z,16.47
2019-03-30T13:33:38.106Z,20.53
2019-03-30T13:36:28.899Z,17.47
2019-03-30T13:39:03.616Z,12.23
2019-03-30T13:41:52.456Z,13.97
2019-03-30T13:44:29.544Z,15.50
2019-03-30T13:47:00.128Z,15.90
2019-03-30T13:49:34.571Z,14.30
2019-03-30T13:52:04.765Z,15.03
2019-03-30T13:54:38.841Z,12.80
2019-03-30T13:57:11.704Z,10.40
2019-03-30T13:59:42.243Z,10.70
2019-03-30T14:02:19.271Z,13.00
2019-03-30T14:04:53.279Z,12.20
2019-03-30T14:07:30.281Z,11.90
2019-03-30T14:10:03.754Z,12.50
2019-03-30T14:12:39.678Z,14.40
2019-03-30T14:15:10.947Z,12.80
2019-03-30T14:17:45.692Z,11.80
2019-03-30T14:23:26.809Z,14.13
2019-03-30T14:25:58.657Z,12.23
2019-03-30T14:28:33.341Z,13.90
2019-03-30T14:31:04.338Z,15.00
2019-03-30T14:33:38.492Z,11.33
2019-03-30T14:36:08.808Z,11.43
2019-03-30T14:38:39.282Z,8.97
2019-03-30T14:41:17.757Z,13.13
2019-03-30T14:43:54.359Z,11.70
2019-03-30T14:46:45.113Z,10.57
2019-03-30T14:49:20.673Z,10.43
2019-03-30T14:51:51.728Z,10.63
2019-03-30T14:54:22.638Z,10.70
2019-03-30T14:56:53.758Z,11.83
2019-03-30T14:59:30.012Z,9.60
2019-03-30T15:02:01.208Z,13.87
2019-03-30T15:04:41.808Z,12.67
2019-03-30T15:07:13.210Z,11.33
2019-03-30T15:09:44.505Z,8.63
2019-03-30T15:12:23.319Z,10.43
2019-03-30T15:14:54.799Z,13.50
2019-03-30T15:17:26.572Z,7.23
2019-03-30T15:19:59.953Z,6.50
2019-03-30T15:22:32.361Z,11.33
2019-03-30T15:25:02.561Z,18.80
2019-03-30T15:27:32.426Z,10.43
2019-03-30T15:30:01.674Z,9.67
2019-03-30T15:32:30.866Z,9.60
2019-03-30T15:35:00.031Z,13.57
2019-03-30T15:37:29.220Z,8.80
2019-03-30T15:40:08.188Z,10.00
2019-03-30T15:42:40.139Z,11.40
2019-03-30T15:45:11.540Z,9.57
2019-03-30T15:47:40.849Z,10.70
2019-03-30T15:50:10.488Z,9.90
2019-03-30T15:52:39.699Z,13.20
2019-03-30T15:55:09.024Z,12.80
2019-03-30T15:57:38.331Z,11.53
2019-03-30T16:00:08.535Z,9.80
2019-03-30T16:02:37.698Z,12.27
2019-03-30T16:05:07.180Z,7.53
2019-03-30T16:07:36.446Z,5.73
2019-03-30T16:10:05.858Z,8.80
2019-03-30T16:12:42.439Z,10.20
2019-03-30T16:15:11.878Z,8.43
2019-03-30T16:17:41.041Z,9.73
2019-03-30T16:20:10.295Z,8.20
2019-03-30T16:22:39.543Z,6.07
2019-03-30T16:25:08.859Z,4.80
2019-03-30T16:27:39.405Z,5.20
2019-03-30T16:30:09.388Z,5.30
2019-03-30T16:32:38.537Z,4.57
2019-03-30T16:35:07.705Z,5.33
2019-03-30T16:37:36.902Z,2.97
2019-03-30T16:40:07.030Z,2.67
2019-03-30T16:42:36.471Z,3.93
2019-03-30T16:45:06.134Z,5.77
2019-03-30T16:47:35.348Z,3.70
2019-03-30T16:50:05.210Z,3.63
2019-03-30T16:52:34.880Z,4.27
2019-03-30T16:55:04.134Z,3.90
2019-03-30T16:57:43.305Z,7.33
2019-03-30T17:00:06.793Z,5.83
2019-03-30T17:02:35.960Z,4.90
2019-03-30T17:05:05.769Z,3.77
2019-03-30T17:07:35.249Z,7.63
2019-03-30T17:10:05.227Z,6.27
2019-03-30T17:12:34.477Z,14.30
2019-03-30T17:15:03.894Z,6.20
2019-03-30T17:17:33.147Z,5.30
2019-03-30T17:20:02.309Z,7.93
2019-03-30T17:22:31.480Z,6.47
2019-03-30T17:25:00.661Z,9.13
2019-03-30T17:27:29.889Z,7.17
2019-03-30T17:29:59.102Z,7.37
2019-03-30T17:32:28.375Z,5.53
2019-03-30T17:34:57.536Z,6.23
2019-03-30T17:37:26.807Z,10.53
2019-03-30T17:39:56.805Z,8.03
2019-03-30T17:42:25.954Z,9.20
2019-03-30T17:44:55.146Z,8.20
2019-03-30T17:47:43.518Z,35.80
2019-03-30T17:50:13.213Z,9.00
2019-03-30T17:52:42.557Z,10.83
2019-03-30T17:55:12.054Z,11.80
2019-03-30T17:57:41.215Z,13.63
2019-03-30T18:00:14.190Z,21.13
2019-03-30T18:02:43.413Z,29.80
2019-03-30T18:05:12.683Z,34.20
2019-03-30T18:07:41.929Z,36.73
2019-03-30T18:10:11.503Z,36.57
2019-03-30T18:12:40.794Z,38.63
2019-03-30T18:15:12.146Z,68.50
2019-03-30T18:17:41.364Z,69.90
2019-03-30T18:20:11.716Z,70.70
2019-03-30T18:22:41.013Z,72.40
2019-03-30T18:25:10.359Z,64.27
2019-03-30T18:27:39.551Z,55.17
2019-03-30T18:30:09.320Z,60.47
2019-03-30T18:32:38.613Z,28.43
2019-03-30T18:35:07.955Z,20.73
2019-03-30T18:37:37.579Z,28.80
2019-03-30T18:40:07.804Z,20.70
2019-03-30T18:42:37.049Z,15.83
2019-03-30T18:45:07.415Z,15.57
2019-03-30T18:47:36.768Z,14.73
2019-03-30T18:50:06.645Z,18.50
2019-03-30T18:52:36.392Z,16.90
2019-03-30T18:55:05.745Z,19.67
2019-03-30T18:57:35.031Z,18.77
2019-03-30T19:00:04.643Z,22.47
2019-03-30T19:02:33.820Z,24.37
2019-03-30T19:05:02.992Z,24.50
2019-03-30T19:07:32.310Z,22.90
2019-03-30T19:10:03.292Z,20.43
2019-03-30T19:12:33.707Z,21.40
2019-03-30T19:15:18.215Z,20.77
2019-03-30T19:17:47.877Z,18.13
2019-03-30T19:20:22.892Z,15.50
2019-03-30T19:22:55.329Z,21.57
2019-03-30T19:25:29.819Z,19.70
2019-03-30T19:28:04.475Z,34.33
2019-03-30T19:30:38.055Z,37.90
2019-03-30T19:33:11.993Z,42.00
2019-03-30T19:35:46.629Z,46.70
2019-03-30T19:38:17.450Z,59.93
2019-03-30T19:40:51.268Z,72.17
2019-03-30T19:43:22.595Z,74.70
2019-03-30T19:45:55.593Z,65.83
2019-03-30T19:48:30.192Z,73.77
2019-03-30T19:51:07.339Z,77.13
2019-03-30T19:53:45.742Z,73.57
2019-03-30T19:56:16.145Z,50.07
2019-03-30T19:58:47.706Z,40.30
2019-03-30T20:01:20.236Z,34.53
2019-03-30T20:03:54.071Z,22.60
2019-03-30T20:06:25.246Z,30.37
2019-03-30T20:09:20.725Z,26.93
2019-03-30T20:11:51.785Z,15.67
2019-03-30T20:14:21.768Z,17.97
2019-03-30T20:17:13.814Z,19.20
2019-03-30T20:19:59.449Z,25.03
2019-03-30T20:22:50.740Z,26.70
2019-03-30T20:25:25.799Z,34.90
2019-03-30T20:27:56.102Z,35.10
2019-03-30T20:30:42.587Z,27.07
2019-03-30T20:33:15.020Z,27.30
2019-03-30T20:35:51.405Z,27.30
2019-03-30T20:38:21.144Z,19.30
2019-03-30T20:40:51.197Z,23.63
2019-03-30T20:43:31.478Z,24.57
2019-03-30T20:46:08.190Z,17.60
2019-03-30T20:48:38.663Z,25.07
2019-03-30T20:51:42.226Z,14.70
2019-03-30T20:54:17.015Z,15.60
2019-03-30T20:57:01.009Z,11.90
2019-03-30T20:59:40.138Z,10.67
2019-03-30T21:02:11.943Z,11.03
2019-03-30T21:04:43.730Z,8.40
2019-03-30T21:07:17.191Z,10.10
2019-03-30T21:09:47.974Z,11.60
2019-03-30T21:12:20.957Z,10.03
2019-03-30T21:14:50.688Z,10.30
2019-03-30T21:17:31.161Z,10.90
2019-03-30T21:20:05.435Z,7.80
2019-03-30T21:22:36.827Z,6.50
2019-03-30T21:25:11.612Z,7.77
2019-03-30T21:27:43.248Z,7.47
2019-03-30T21:30:14.110Z,6.77
2019-03-30T21:32:48.414Z,7.20
2019-03-30T21:35:33.600Z,8.33
2019-03-30T21:38:24.009Z,5.80
2019-03-30T21:40:57.640Z,7.20
2019-03-30T21:43:30.806Z,10.50
2019-03-30T21:46:02.408Z,6.60
2019-03-30T21:48:40.895Z,8.63
2019-03-30T21:51:15.621Z,9.53
2019-03-30T21:53:46.954Z,6.57
2019-03-30T21:56:22.739Z,7.80
2019-03-30T21:58:54.553Z,12.13
2019-03-30T22:04:24.988Z,6.83
2019-03-30T22:07:00.098Z,6.37
2019-03-30T22:09:50.398Z,6.57
2019-03-30T22:12:26.696Z,12.47
2019-03-30T22:14:57.618Z,6.40
2019-03-30T22:17:30.190Z,8.80
2019-03-30T22:20:07.131Z,6.97
2019-03-30T22:22:39.309Z,7.43
2019-03-30T22:25:10.799Z,8.73
2019-03-30T22:27:50.975Z,10.10
2019-03-30T22:30:24.997Z,8.07
2019-03-30T22:32:54.309Z,6.50
2019-03-30T22:35:27.552Z,7.10
2019-03-30T22:37:58.004Z,6.17
2019-03-30T22:40:27.421Z,10.63
2019-03-30T22:42:59.547Z,5.60
2019-03-30T22:45:31.912Z,5.73
2019-03-30T22:48:16.083Z,6.30
2019-03-30T22:50:46.651Z,6.87
2019-03-30T22:53:21.143Z,6.93
2019-03-30T22:56:17.365Z,5.73
2019-03-30T22:58:49.164Z,7.20
2019-03-30T23:01:23.549Z,5.73
2019-03-30T23:03:56.539Z,8.53
2019-03-30T23:06:27.514Z,8.90
2019-03-30T23:09:01.066Z,7.83
2019-03-30T23:11:34.410Z,9.53
2019-03-30T23:14:05.209Z,6.77
2019-03-30T23:16:34.665Z,5.40
2019-03-30T23:19:09.645Z,8.47
2019-03-30T23:22:03.562Z,6.00
2019-03-30T23:24:45.625Z,6.03
2019-03-30T23:27:23.051Z,6.13
2019-03-30T23:29:58.660Z,7.30
2019-03-30T23:32:33.748Z,10.27
2019-03-30T23:35:06.214Z,7.67
2019-03-30T23:37:42.919Z,9.07
2019-03-30T23:40:12.265Z,6.57
2019-03-30T23:42:47.008Z,8.93
2019-03-30T23:45:26.040Z,10.53
2019-03-30T23:47:56.021Z,8.83
2019-03-30T23:50:26.390Z,9.13
2019-03-30T23:52:59.051Z,9.40
2019-03-30T23:55:30.268Z,8.37
2019-03-30T23:58:05.113Z,8.63
